sensor_id;sensor_type;location;lat;lon;timestamp;P1;durP1;ratioP1;P2;durP2;ratioP2
1128;SDS011;553;51.038;7.216;2023-04-24T00:01:04;1.17;;;0.70;;
1128;SDS011;553;51.038;7.216;2023-04-24T00:03:33;0.67;;;0.50;;
1128;SDS011;553;51.038;7.216;2023-04-24T00:06:01;1.10;;;0.60;;
1128;SDS011;553;51.038;7.216;2023-04-24T00:08:28;0.70;;;0.40;;
1128;SDS011;553;51.038;7.216;2023-04-24T00:10:55;1.00;;;0.50;;
1128;SDS011;553;51.038;7.216;2023-04-24T00:13:23;1.67;;;0.70;;
1128;SDS011;553;51.038;7.216;2023-04-24T00:15:50;0.90;;;0.60;;
1128;SDS011;553;51.038;7.216;2023-04-24T00:18:17;1.00;;;0.67;;
1128;SDS011;553;51.038;7.216;2023-04-24T00:20:44;0.90;;;0.50;;
1128;SDS011;553;51.038;7.216;2023-04-24T00:23:12;3.10;;;0.60;;
1128;SDS011;553;51.038;7.216;2023-04-24T00:25:39;2.50;;;0.80;;
1128;SDS011;553;51.038;7.216;2023-04-24T00:28:06;1.00;;;0.70;;
1128;SDS011;553;51.038;7.216;2023-04-24T00:30:33;1.20;;;0.63;;
1128;SDS011;553;51.038;7.216;2023-04-24T00:33:00;0.90;;;0.70;;
1128;SDS011;553;51.038;7.216;2023-04-24T00:35:27;1.00;;;0.80;;
1128;SDS011;553;51.038;7.216;2023-04-24T00:37:53;2.57;;;0.93;;
1128;SDS011;553;51.038;7.216;2023-04-24T00:40:20;1.67;;;0.83;;
1128;SDS011;553;51.038;7.216;2023-04-24T00:42:47;1.10;;;0.90;;
1128;SDS011;553;51.038;7.216;2023-04-24T00:45:14;2.90;;;0.83;;
1128;SDS011;553;51.038;7.216;2023-04-24T00:47:41;1.40;;;0.70;;
1128;SDS011;553;51.038;7.216;2023-04-24T00:50:08;1.03;;;0.67;;
1128;SDS011;553;51.038;7.216;2023-04-24T00:52:35;1.40;;;1.17;;
1128;SDS011;553;51.038;7.216;2023-04-24T00:55:02;1.27;;;0.70;;
1128;SDS011;553;51.038;7.216;2023-04-24T00:57:29;1.30;;;0.80;;
1128;SDS011;553;51.038;7.216;2023-04-24T00:59:56;1.57;;;1.00;;
1128;SDS011;553;51.038;7.216;2023-04-24T01:02:23;1.07;;;0.67;;
1128;SDS011;553;51.038;7.216;2023-04-24T01:04:51;1.30;;;0.77;;
1128;SDS011;553;51.038;7.216;2023-04-24T01:07:21;3.27;;;1.00;;
1128;SDS011;553;51.038;7.216;2023-04-24T01:09:50;1.40;;;0.80;;
1128;SDS011;553;51.038;7.216;2023-04-24T01:12:18;1.63;;;0.90;;
1128;SDS011;553;51.038;7.216;2023-04-24T01:14:45;4.17;;;1.00;;
1128;SDS011;553;51.038;7.216;2023-04-24T01:17:14;1.30;;;0.90;;
1128;SDS011;553;51.038;7.216;2023-04-24T01:19:41;2.97;;;1.00;;
1128;SDS011;553;51.038;7.216;2023-04-24T01:22:12;1.77;;;0.90;;
1128;SDS011;553;51.038;7.216;2023-04-24T01:24:43;3.77;;;1.43;;
1128;SDS011;553;51.038;7.216;2023-04-24T01:27:11;3.50;;;1.83;;
1128;SDS011;553;51.038;7.216;2023-04-24T01:29:38;3.30;;;1.83;;
1128;SDS011;553;51.038;7.216;2023-04-24T01:32:06;1.40;;;1.10;;
1128;SDS011;553;51.038;7.216;2023-04-24T01:34:33;3.10;;;0.93;;
1128;SDS011;553;51.038;7.216;2023-04-24T01:37:00;2.33;;;1.57;;
1128;SDS011;553;51.038;7.216;2023-04-24T01:39:27;6.07;;;1.57;;
1128;SDS011;553;51.038;7.216;2023-04-24T01:41:54;2.57;;;1.77;;
1128;SDS011;553;51.038;7.216;2023-04-24T01:44:21;3.73;;;1.60;;
1128;SDS011;553;51.038;7.216;2023-04-24T01:46:49;4.30;;;1.40;;
1128;SDS011;553;51.038;7.216;2023-04-24T01:49:16;2.07;;;1.47;;
1128;SDS011;553;51.038;7.216;2023-04-24T01:51:44;2.77;;;2.00;;
1128;SDS011;553;51.038;7.216;2023-04-24T01:54:12;2.67;;;1.70;;
1128;SDS011;553;51.038;7.216;2023-04-24T01:56:42;1.30;;;1.20;;
1128;SDS011;553;51.038;7.216;2023-04-24T01:59:12;4.90;;;1.37;;
1128;SDS011;553;51.038;7.216;2023-04-24T02:01:39;2.70;;;1.73;;
1128;SDS011;553;51.038;7.216;2023-04-24T02:04:06;5.27;;;3.47;;
1128;SDS011;553;51.038;7.216;2023-04-24T02:06:34;9.60;;;3.93;;
1128;SDS011;553;51.038;7.216;2023-04-24T02:09:02;4.90;;;3.20;;
1128;SDS011;553;51.038;7.216;2023-04-24T02:11:29;4.77;;;3.37;;
1128;SDS011;553;51.038;7.216;2023-04-24T02:13:56;4.60;;;2.87;;
1128;SDS011;553;51.038;7.216;2023-04-24T02:16:23;4.73;;;3.50;;
1128;SDS011;553;51.038;7.216;2023-04-24T02:18:50;6.00;;;4.23;;
1128;SDS011;553;51.038;7.216;2023-04-24T02:21:17;3.80;;;2.90;;
1128;SDS011;553;51.038;7.216;2023-04-24T02:23:44;3.00;;;2.67;;
1128;SDS011;553;51.038;7.216;2023-04-24T02:26:11;4.07;;;3.40;;
1128;SDS011;553;51.038;7.216;2023-04-24T02:28:38;5.27;;;3.73;;
1128;SDS011;553;51.038;7.216;2023-04-24T02:31:05;6.00;;;4.40;;
1128;SDS011;553;51.038;7.216;2023-04-24T02:33:32;6.47;;;4.87;;
1128;SDS011;553;51.038;7.216;2023-04-24T02:35:59;8.20;;;4.50;;
1128;SDS011;553;51.038;7.216;2023-04-24T02:38:26;4.20;;;3.67;;
1128;SDS011;553;51.038;7.216;2023-04-24T02:40:52;4.63;;;3.30;;
1128;SDS011;553;51.038;7.216;2023-04-24T02:43:19;7.00;;;4.00;;
1128;SDS011;553;51.038;7.216;2023-04-24T02:45:46;7.40;;;4.50;;
1128;SDS011;553;51.038;7.216;2023-04-24T02:48:14;6.60;;;5.03;;
1128;SDS011;553;51.038;7.216;2023-04-24T02:50:41;5.20;;;4.50;;
1128;SDS011;553;51.038;7.216;2023-04-24T02:53:08;8.97;;;5.83;;
1128;SDS011;553;51.038;7.216;2023-04-24T02:55:35;7.77;;;5.33;;
1128;SDS011;553;51.038;7.216;2023-04-24T02:58:02;8.23;;;5.63;;
1128;SDS011;553;51.038;7.216;2023-04-24T03:00:28;6.47;;;5.13;;
1128;SDS011;553;51.038;7.216;2023-04-24T03:02:56;8.40;;;4.60;;
1128;SDS011;553;51.038;7.216;2023-04-24T03:05:23;8.50;;;5.33;;
1128;SDS011;553;51.038;7.216;2023-04-24T03:07:49;5.10;;;4.00;;
1128;SDS011;553;51.038;7.216;2023-04-24T03:10:20;7.63;;;4.90;;
1128;SDS011;553;51.038;7.216;2023-04-24T03:12:48;8.33;;;5.07;;
1128;SDS011;553;51.038;7.216;2023-04-24T03:15:17;6.93;;;4.90;;
1128;SDS011;553;51.038;7.216;2023-04-24T03:17:44;6.73;;;5.13;;
1128;SDS011;553;51.038;7.216;2023-04-24T03:20:11;8.47;;;5.47;;
1128;SDS011;553;51.038;7.216;2023-04-24T03:22:38;10.83;;;5.40;;
1128;SDS011;553;51.038;7.216;2023-04-24T03:25:06;7.80;;;5.50;;
1128;SDS011;553;51.038;7.216;2023-04-24T03:27:35;11.67;;;6.17;;
1128;SDS011;553;51.038;7.216;2023-04-24T03:30:07;9.53;;;5.77;;
1128;SDS011;553;51.038;7.216;2023-04-24T03:32:45;9.07;;;6.50;;
1128;SDS011;553;51.038;7.216;2023-04-24T03:35:16;7.70;;;6.30;;
1128;SDS011;553;51.038;7.216;2023-04-24T03:37:43;8.37;;;6.00;;
1128;SDS011;553;51.038;7.216;2023-04-24T03:40:32;12.27;;;7.27;;
1128;SDS011;553;51.038;7.216;2023-04-24T03:43:01;9.03;;;6.03;;
1128;SDS011;553;51.038;7.216;2023-04-24T03:45:28;8.63;;;6.10;;
1128;SDS011;553;51.038;7.216;2023-04-24T03:47:55;9.90;;;7.00;;
1128;SDS011;553;51.038;7.216;2023-04-24T03:50:22;7.43;;;6.40;;
1128;SDS011;553;51.038;7.216;2023-04-24T03:52:49;9.10;;;6.50;;
1128;SDS011;553;51.038;7.216;2023-04-24T03:55:27;7.40;;;6.30;;
1128;SDS011;553;51.038;7.216;2023-04-24T03:57:54;9.43;;;7.10;;
1128;SDS011;553;51.038;7.216;2023-04-24T04:00:21;9.50;;;6.70;;
1128;SDS011;553;51.038;7.216;2023-04-24T04:02:58;9.13;;;6.70;;
1128;SDS011;553;51.038;7.216;2023-04-24T04:05:26;9.83;;;6.30;;
1128;SDS011;553;51.038;7.216;2023-04-24T04:07:52;8.03;;;6.23;;
1128;SDS011;553;51.038;7.216;2023-04-24T04:10:19;9.23;;;6.37;;
1128;SDS011;553;51.038;7.216;2023-04-24T04:12:46;8.67;;;6.40;;
1128;SDS011;553;51.038;7.216;2023-04-24T04:15:13;8.97;;;6.30;;
1128;SDS011;553;51.038;7.216;2023-04-24T04:17:40;9.90;;;7.07;;
1128;SDS011;553;51.038;7.216;2023-04-24T04:20:07;9.90;;;6.97;;
1128;SDS011;553;51.038;7.216;2023-04-24T04:22:37;9.13;;;6.70;;
1128;SDS011;553;51.038;7.216;2023-04-24T04:25:07;8.60;;;6.43;;
1128;SDS011;553;51.038;7.216;2023-04-24T04:27:34;8.10;;;6.47;;
1128;SDS011;553;51.038;7.216;2023-04-24T04:30:07;10.00;;;6.53;;
1128;SDS011;553;51.038;7.216;2023-04-24T04:32:46;10.00;;;5.83;;
1128;SDS011;553;51.038;7.216;2023-04-24T04:35:13;10.70;;;6.63;;
1128;SDS011;553;51.038;7.216;2023-04-24T04:37:40;9.10;;;6.30;;
1128;SDS011;553;51.038;7.216;2023-04-24T04:40:26;10.53;;;6.60;;
1128;SDS011;553;51.038;7.216;2023-04-24T04:42:59;8.43;;;6.33;;
1128;SDS011;553;51.038;7.216;2023-04-24T04:45:30;7.70;;;6.20;;
1128;SDS011;553;51.038;7.216;2023-04-24T04:48:16;8.73;;;5.50;;
1128;SDS011;553;51.038;7.216;2023-04-24T04:50:45;6.70;;;5.67;;
1128;SDS011;553;51.038;7.216;2023-04-24T04:53:11;11.50;;;6.40;;
1128;SDS011;553;51.038;7.216;2023-04-24T04:55:38;9.00;;;6.07;;
1128;SDS011;553;51.038;7.216;2023-04-24T04:58:09;7.10;;;5.60;;
1128;SDS011;553;51.038;7.216;2023-04-24T05:00:36;7.73;;;5.47;;
1128;SDS011;553;51.038;7.216;2023-04-24T05:03:12;8.03;;;6.20;;
1128;SDS011;553;51.038;7.216;2023-04-24T05:05:44;9.33;;;6.10;;
1128;SDS011;553;51.038;7.216;2023-04-24T05:08:13;9.33;;;6.40;;
1128;SDS011;553;51.038;7.216;2023-04-24T05:10:43;9.10;;;6.00;;
1128;SDS011;553;51.038;7.216;2023-04-24T05:13:10;9.93;;;6.67;;
1128;SDS011;553;51.038;7.216;2023-04-24T05:15:39;8.73;;;6.00;;
1128;SDS011;553;51.038;7.216;2023-04-24T05:18:06;8.17;;;6.20;;
1128;SDS011;553;51.038;7.216;2023-04-24T05:20:33;7.40;;;6.10;;
1128;SDS011;553;51.038;7.216;2023-04-24T05:23:00;8.00;;;6.60;;
1128;SDS011;553;51.038;7.216;2023-04-24T05:25:28;9.63;;;5.63;;
1128;SDS011;553;51.038;7.216;2023-04-24T05:28:04;7.90;;;5.70;;
1128;SDS011;553;51.038;7.216;2023-04-24T05:30:32;7.10;;;5.30;;
1128;SDS011;553;51.038;7.216;2023-04-24T05:32:59;8.70;;;5.93;;
1128;SDS011;553;51.038;7.216;2023-04-24T05:35:29;8.67;;;5.60;;
1128;SDS011;553;51.038;7.216;2023-04-24T05:37:56;11.47;;;8.37;;
1128;SDS011;553;51.038;7.216;2023-04-24T05:40:23;10.70;;;7.30;;
1128;SDS011;553;51.038;7.216;2023-04-24T05:42:49;8.47;;;5.80;;
1128;SDS011;553;51.038;7.216;2023-04-24T05:45:16;7.43;;;5.77;;
1128;SDS011;553;51.038;7.216;2023-04-24T05:47:43;11.93;;;6.37;;
1128;SDS011;553;51.038;7.216;2023-04-24T05:50:10;9.87;;;6.90;;
1128;SDS011;553;51.038;7.216;2023-04-24T05:52:37;10.63;;;7.30;;
1128;SDS011;553;51.038;7.216;2023-04-24T05:55:12;7.80;;;6.50;;
1128;SDS011;553;51.038;7.216;2023-04-24T05:57:41;11.93;;;7.97;;
1128;SDS011;553;51.038;7.216;2023-04-24T06:00:08;9.57;;;7.57;;
1128;SDS011;553;51.038;7.216;2023-04-24T06:02:48;11.17;;;7.87;;
1128;SDS011;553;51.038;7.216;2023-04-24T06:05:15;10.80;;;8.60;;
1128;SDS011;553;51.038;7.216;2023-04-24T06:07:43;10.50;;;7.53;;
1128;SDS011;553;51.038;7.216;2023-04-24T06:10:10;12.03;;;9.57;;
1128;SDS011;553;51.038;7.216;2023-04-24T06:12:40;9.87;;;7.97;;
1128;SDS011;553;51.038;7.216;2023-04-24T06:15:13;14.50;;;9.00;;
1128;SDS011;553;51.038;7.216;2023-04-24T06:18:07;15.67;;;9.87;;
1128;SDS011;553;51.038;7.216;2023-04-24T06:20:35;11.03;;;8.77;;
1128;SDS011;553;51.038;7.216;2023-04-24T06:23:02;9.50;;;7.80;;
1128;SDS011;553;51.038;7.216;2023-04-24T06:25:28;12.00;;;9.63;;
1128;SDS011;553;51.038;7.216;2023-04-24T06:27:55;12.50;;;8.87;;
1128;SDS011;553;51.038;7.216;2023-04-24T06:30:22;12.17;;;9.10;;
1128;SDS011;553;51.038;7.216;2023-04-24T06:32:49;12.27;;;8.63;;
1128;SDS011;553;51.038;7.216;2023-04-24T06:35:16;10.80;;;7.83;;
1128;SDS011;553;51.038;7.216;2023-04-24T06:37:43;11.03;;;8.83;;
1128;SDS011;553;51.038;7.216;2023-04-24T06:40:10;13.07;;;9.07;;
1128;SDS011;553;51.038;7.216;2023-04-24T06:42:37;13.80;;;9.67;;
1128;SDS011;553;51.038;7.216;2023-04-24T06:45:07;17.97;;;9.70;;
1128;SDS011;553;51.038;7.216;2023-04-24T06:47:34;15.03;;;8.93;;
1128;SDS011;553;51.038;7.216;2023-04-24T06:50:01;11.10;;;8.57;;
1128;SDS011;553;51.038;7.216;2023-04-24T06:52:28;13.93;;;9.20;;
1128;SDS011;553;51.038;7.216;2023-04-24T06:55:02;14.03;;;9.10;;
1128;SDS011;553;51.038;7.216;2023-04-24T06:57:29;10.00;;;8.50;;
1128;SDS011;553;51.038;7.216;2023-04-24T06:59:58;12.00;;;8.30;;
1128;SDS011;553;51.038;7.216;2023-04-24T07:02:25;13.30;;;8.83;;
1128;SDS011;553;51.038;7.216;2023-04-24T07:04:52;13.90;;;9.43;;
1128;SDS011;553;51.038;7.216;2023-04-24T07:07:19;12.23;;;9.03;;
1128;SDS011;553;51.038;7.216;2023-04-24T07:09:45;11.50;;;9.30;;
1128;SDS011;553;51.038;7.216;2023-04-24T07:12:12;13.67;;;8.63;;
1128;SDS011;553;51.038;7.216;2023-04-24T07:14:39;10.30;;;8.10;;
1128;SDS011;553;51.038;7.216;2023-04-24T07:17:06;8.77;;;5.70;;
1128;SDS011;553;51.038;7.216;2023-04-24T07:19:33;10.00;;;4.07;;
1128;SDS011;553;51.038;7.216;2023-04-24T07:22:01;6.80;;;4.73;;
1128;SDS011;553;51.038;7.216;2023-04-24T07:24:29;6.17;;;4.67;;
1128;SDS011;553;51.038;7.216;2023-04-24T07:26:58;4.73;;;3.67;;
1128;SDS011;553;51.038;7.216;2023-04-24T07:29:27;5.20;;;4.53;;
1128;SDS011;553;51.038;7.216;2023-04-24T07:31:53;7.03;;;5.20;;
1128;SDS011;553;51.038;7.216;2023-04-24T07:34:20;7.67;;;4.80;;
1128;SDS011;553;51.038;7.216;2023-04-24T07:36:47;7.90;;;5.40;;
1128;SDS011;553;51.038;7.216;2023-04-24T07:39:13;8.60;;;4.40;;
1128;SDS011;553;51.038;7.216;2023-04-24T07:41:40;8.23;;;4.60;;
1128;SDS011;553;51.038;7.216;2023-04-24T07:44:07;5.67;;;3.53;;
1128;SDS011;553;51.038;7.216;2023-04-24T07:46:34;4.83;;;3.40;;
1128;SDS011;553;51.038;7.216;2023-04-24T07:49:01;9.10;;;4.03;;
1128;SDS011;553;51.038;7.216;2023-04-24T07:51:39;4.83;;;3.20;;
1128;SDS011;553;51.038;7.216;2023-04-24T07:54:07;6.40;;;3.63;;
1128;SDS011;553;51.038;7.216;2023-04-24T07:56:34;4.70;;;3.70;;
1128;SDS011;553;51.038;7.216;2023-04-24T07:59:05;2.70;;;1.67;;
1128;SDS011;553;51.038;7.216;2023-04-24T08:01:32;1.70;;;1.60;;
1128;SDS011;553;51.038;7.216;2023-04-24T08:03:59;1.50;;;1.20;;
1128;SDS011;553;51.038;7.216;2023-04-24T08:06:26;2.37;;;1.70;;
1128;SDS011;553;51.038;7.216;2023-04-24T08:08:56;2.30;;;1.50;;
1128;SDS011;553;51.038;7.216;2023-04-24T08:11:23;3.93;;;1.20;;
1128;SDS011;553;51.038;7.216;2023-04-24T08:13:50;4.07;;;1.60;;
1128;SDS011;553;51.038;7.216;2023-04-24T08:16:17;1.90;;;1.43;;
1128;SDS011;553;51.038;7.216;2023-04-24T08:18:44;2.37;;;1.67;;
1128;SDS011;553;51.038;7.216;2023-04-24T08:21:11;3.13;;;2.00;;
1128;SDS011;553;51.038;7.216;2023-04-24T08:23:39;3.33;;;1.70;;
1128;SDS011;553;51.038;7.216;2023-04-24T08:26:05;3.10;;;1.60;;
1128;SDS011;553;51.038;7.216;2023-04-24T08:28:33;1.43;;;1.13;;
1128;SDS011;553;51.038;7.216;2023-04-24T08:31:00;2.70;;;1.87;;
1128;SDS011;553;51.038;7.216;2023-04-24T08:33:27;2.33;;;1.50;;
1128;SDS011;553;51.038;7.216;2023-04-24T08:35:58;3.77;;;1.33;;
1128;SDS011;553;51.038;7.216;2023-04-24T08:38:26;2.80;;;1.37;;
1128;SDS011;553;51.038;7.216;2023-04-24T08:40:53;2.00;;;1.20;;
1128;SDS011;553;51.038;7.216;2023-04-24T08:43:21;1.60;;;1.40;;
1128;SDS011;553;51.038;7.216;2023-04-24T08:45:49;2.17;;;1.30;;
1128;SDS011;553;51.038;7.216;2023-04-24T08:48:16;2.10;;;1.67;;
1128;SDS011;553;51.038;7.216;2023-04-24T08:50:56;2.93;;;1.50;;
1128;SDS011;553;51.038;7.216;2023-04-24T08:53:24;3.87;;;1.50;;
1128;SDS011;553;51.038;7.216;2023-04-24T08:55:51;3.50;;;2.23;;
1128;SDS011;553;51.038;7.216;2023-04-24T08:58:20;4.30;;;1.80;;
1128;SDS011;553;51.038;7.216;2023-04-24T09:00:48;2.80;;;2.40;;
1128;SDS011;553;51.038;7.216;2023-04-24T09:03:15;6.83;;;2.30;;
1128;SDS011;553;51.038;7.216;2023-04-24T09:05:43;2.40;;;1.90;;
1128;SDS011;553;51.038;7.216;2023-04-24T09:08:15;5.47;;;2.33;;
1128;SDS011;553;51.038;7.216;2023-04-24T09:10:43;5.20;;;2.90;;
1128;SDS011;553;51.038;7.216;2023-04-24T09:13:10;4.60;;;2.80;;
1128;SDS011;553;51.038;7.216;2023-04-24T09:15:38;3.67;;;2.90;;
1128;SDS011;553;51.038;7.216;2023-04-24T09:18:06;5.77;;;3.77;;
1128;SDS011;553;51.038;7.216;2023-04-24T09:20:33;6.00;;;4.07;;
1128;SDS011;553;51.038;7.216;2023-04-24T09:23:02;6.83;;;4.60;;
1128;SDS011;553;51.038;7.216;2023-04-24T09:25:32;6.27;;;4.13;;
1128;SDS011;553;51.038;7.216;2023-04-24T09:28:00;7.73;;;4.80;;
1128;SDS011;553;51.038;7.216;2023-04-24T09:30:28;11.00;;;5.40;;
1128;SDS011;553;51.038;7.216;2023-04-24T09:33:09;7.67;;;5.47;;
1128;SDS011;553;51.038;7.216;2023-04-24T09:35:37;10.63;;;6.93;;
1128;SDS011;553;51.038;7.216;2023-04-24T09:38:07;8.73;;;6.40;;
1128;SDS011;553;51.038;7.216;2023-04-24T09:40:34;12.13;;;8.00;;
1128;SDS011;553;51.038;7.216;2023-04-24T09:43:03;10.40;;;6.90;;
1128;SDS011;553;51.038;7.216;2023-04-24T09:45:36;13.03;;;6.43;;
1128;SDS011;553;51.038;7.216;2023-04-24T09:48:05;9.63;;;6.63;;
1128;SDS011;553;51.038;7.216;2023-04-24T09:50:36;11.00;;;6.33;;
1128;SDS011;553;51.038;7.216;2023-04-24T09:53:03;14.03;;;6.60;;
1128;SDS011;553;51.038;7.216;2023-04-24T09:55:32;10.70;;;6.93;;
1128;SDS011;553;51.038;7.216;2023-04-24T09:57:59;10.57;;;7.60;;
1128;SDS011;553;51.038;7.216;2023-04-24T10:00:28;8.77;;;6.10;;
1128;SDS011;553;51.038;7.216;2023-04-24T10:02:56;9.90;;;5.97;;
1128;SDS011;553;51.038;7.216;2023-04-24T10:05:26;10.83;;;4.70;;
1128;SDS011;553;51.038;7.216;2023-04-24T10:08:09;9.17;;;6.03;;
1128;SDS011;553;51.038;7.216;2023-04-24T10:10:41;15.33;;;7.30;;
1128;SDS011;553;51.038;7.216;2023-04-24T10:13:09;11.93;;;6.57;;
1128;SDS011;553;51.038;7.216;2023-04-24T10:15:37;11.93;;;7.53;;
1128;SDS011;553;51.038;7.216;2023-04-24T10:18:04;11.70;;;8.20;;
1128;SDS011;553;51.038;7.216;2023-04-24T10:20:33;13.47;;;9.17;;
1128;SDS011;553;51.038;7.216;2023-04-24T10:23:01;12.53;;;8.20;;
1128;SDS011;553;51.038;7.216;2023-04-24T10:25:30;12.60;;;7.57;;
1128;SDS011;553;51.038;7.216;2023-04-24T10:28:00;12.70;;;7.80;;
1128;SDS011;553;51.038;7.216;2023-04-24T10:30:31;14.00;;;9.00;;
1128;SDS011;553;51.038;7.216;2023-04-24T10:33:02;16.57;;;10.30;;
1128;SDS011;553;51.038;7.216;2023-04-24T10:35:31;20.47;;;10.20;;
1128;SDS011;553;51.038;7.216;2023-04-24T10:38:09;13.60;;;10.20;;
1128;SDS011;553;51.038;7.216;2023-04-24T10:40:40;18.00;;;9.93;;
1128;SDS011;553;51.038;7.216;2023-04-24T10:43:09;17.20;;;9.80;;
1128;SDS011;553;51.038;7.216;2023-04-24T10:45:37;16.27;;;9.63;;
1128;SDS011;553;51.038;7.216;2023-04-24T10:48:06;17.30;;;9.97;;
1128;SDS011;553;51.038;7.216;2023-04-24T10:53:17;14.50;;;9.37;;
1128;SDS011;553;51.038;7.216;2023-04-24T10:55:47;16.07;;;8.97;;
1128;SDS011;553;51.038;7.216;2023-04-24T10:58:16;18.67;;;10.10;;
1128;SDS011;553;51.038;7.216;2023-04-24T11:00:56;24.27;;;11.27;;
1128;SDS011;553;51.038;7.216;2023-04-24T11:03:27;18.00;;;10.23;;
1128;SDS011;553;51.038;7.216;2023-04-24T11:05:57;20.83;;;10.03;;
1128;SDS011;553;51.038;7.216;2023-04-24T11:11:11;15.53;;;9.03;;
1128;SDS011;553;51.038;7.216;2023-04-24T11:16:35;18.40;;;8.23;;
1128;SDS011;553;51.038;7.216;2023-04-24T11:19:18;19.27;;;9.60;;
1128;SDS011;553;51.038;7.216;2023-04-24T11:24:26;11.97;;;8.10;;
1128;SDS011;553;51.038;7.216;2023-04-24T11:29:38;18.57;;;7.30;;
1128;SDS011;553;51.038;7.216;2023-04-24T11:35:00;15.53;;;7.20;;
1128;SDS011;553;51.038;7.216;2023-04-24T11:37:30;11.37;;;6.80;;
1128;SDS011;553;51.038;7.216;2023-04-24T11:40:10;13.47;;;6.90;;
1128;SDS011;553;51.038;7.216;2023-04-24T11:42:39;10.50;;;6.50;;
1128;SDS011;553;51.038;7.216;2023-04-24T11:45:08;13.77;;;7.40;;
1128;SDS011;553;51.038;7.216;2023-04-24T11:47:36;14.83;;;6.53;;
1128;SDS011;553;51.038;7.216;2023-04-24T11:50:03;17.30;;;6.43;;
1128;SDS011;553;51.038;7.216;2023-04-24T11:52:32;10.13;;;6.20;;
1128;SDS011;553;51.038;7.216;2023-04-24T11:55:02;11.30;;;6.33;;
1128;SDS011;553;51.038;7.216;2023-04-24T11:57:29;16.37;;;7.20;;
1128;SDS011;553;51.038;7.216;2023-04-24T12:00:01;8.67;;;5.50;;
1128;SDS011;553;51.038;7.216;2023-04-24T12:02:37;11.70;;;6.30;;
1128;SDS011;553;51.038;7.216;2023-04-24T12:05:05;12.60;;;6.50;;
1128;SDS011;553;51.038;7.216;2023-04-24T12:07:40;16.60;;;7.20;;
1128;SDS011;553;51.038;7.216;2023-04-24T12:10:10;16.73;;;8.10;;
1128;SDS011;553;51.038;7.216;2023-04-24T12:12:38;15.43;;;7.97;;
1128;SDS011;553;51.038;7.216;2023-04-24T12:15:08;13.10;;;6.73;;
1128;SDS011;553;51.038;7.216;2023-04-24T12:17:35;13.47;;;7.50;;
1128;SDS011;553;51.038;7.216;2023-04-24T12:20:07;18.33;;;7.10;;
1128;SDS011;553;51.038;7.216;2023-04-24T12:22:50;11.73;;;6.80;;
1128;SDS011;553;51.038;7.216;2023-04-24T12:25:23;10.83;;;5.93;;
1128;SDS011;553;51.038;7.216;2023-04-24T12:30:30;15.57;;;6.77;;
1128;SDS011;553;51.038;7.216;2023-04-24T12:32:59;13.20;;;7.80;;
1128;SDS011;553;51.038;7.216;2023-04-24T12:35:27;8.93;;;5.73;;
1128;SDS011;553;51.038;7.216;2023-04-24T12:37:56;8.93;;;5.20;;
1128;SDS011;553;51.038;7.216;2023-04-24T12:40:35;8.60;;;4.83;;
1128;SDS011;553;51.038;7.216;2023-04-24T12:43:02;10.67;;;5.40;;
1128;SDS011;553;51.038;7.216;2023-04-24T12:45:38;19.40;;;5.73;;
1128;SDS011;553;51.038;7.216;2023-04-24T12:48:05;10.20;;;4.80;;
1128;SDS011;553;51.038;7.216;2023-04-24T12:50:32;12.13;;;4.93;;
1128;SDS011;553;51.038;7.216;2023-04-24T12:52:59;8.00;;;4.67;;
1128;SDS011;553;51.038;7.216;2023-04-24T12:55:26;10.83;;;4.53;;
1128;SDS011;553;51.038;7.216;2023-04-24T12:57:53;9.57;;;4.30;;
1128;SDS011;553;51.038;7.216;2023-04-24T13:00:21;8.93;;;4.37;;
1128;SDS011;553;51.038;7.216;2023-04-24T13:02:48;7.40;;;3.73;;
1128;SDS011;553;51.038;7.216;2023-04-24T13:05:15;12.10;;;4.40;;
1128;SDS011;553;51.038;7.216;2023-04-24T13:07:43;8.60;;;3.97;;
1128;SDS011;553;51.038;7.216;2023-04-24T13:10:10;10.93;;;4.87;;
1128;SDS011;553;51.038;7.216;2023-04-24T13:12:37;6.03;;;4.20;;
1128;SDS011;553;51.038;7.216;2023-04-24T13:15:04;5.77;;;4.10;;
1128;SDS011;553;51.038;7.216;2023-04-24T13:17:32;10.03;;;4.73;;
1128;SDS011;553;51.038;7.216;2023-04-24T13:20:00;9.87;;;5.17;;
1128;SDS011;553;51.038;7.216;2023-04-24T13:22:27;6.93;;;3.70;;
1128;SDS011;553;51.038;7.216;2023-04-24T13:24:53;6.33;;;4.10;;
1128;SDS011;553;51.038;7.216;2023-04-24T13:27:22;5.70;;;4.00;;
1128;SDS011;553;51.038;7.216;2023-04-24T13:29:48;8.93;;;3.70;;
1128;SDS011;553;51.038;7.216;2023-04-24T13:32:15;7.20;;;3.97;;
1128;SDS011;553;51.038;7.216;2023-04-24T13:34:43;6.10;;;4.10;;
1128;SDS011;553;51.038;7.216;2023-04-24T13:37:10;7.40;;;3.63;;
1128;SDS011;553;51.038;7.216;2023-04-24T13:39:37;4.50;;;3.80;;
1128;SDS011;553;51.038;7.216;2023-04-24T13:42:04;11.40;;;4.63;;
1128;SDS011;553;51.038;7.216;2023-04-24T13:44:31;11.77;;;3.60;;
1128;SDS011;553;51.038;7.216;2023-04-24T13:46:58;9.00;;;4.40;;
1128;SDS011;553;51.038;7.216;2023-04-24T13:49:25;5.83;;;4.10;;
1128;SDS011;553;51.038;7.216;2023-04-24T13:51:53;5.50;;;3.37;;
1128;SDS011;553;51.038;7.216;2023-04-24T13:54:21;7.33;;;3.27;;
1128;SDS011;553;51.038;7.216;2023-04-24T13:56:51;7.37;;;3.57;;
1128;SDS011;553;51.038;7.216;2023-04-24T13:59:19;5.80;;;3.80;;
1128;SDS011;553;51.038;7.216;2023-04-24T14:01:47;8.13;;;3.30;;
1128;SDS011;553;51.038;7.216;2023-04-24T14:04:14;4.87;;;3.13;;
1128;SDS011;553;51.038;7.216;2023-04-24T14:06:43;3.40;;;2.73;;
1128;SDS011;553;51.038;7.216;2023-04-24T14:09:10;4.20;;;3.07;;
1128;SDS011;553;51.038;7.216;2023-04-24T14:11:37;4.30;;;2.83;;
1128;SDS011;553;51.038;7.216;2023-04-24T14:14:04;7.00;;;3.30;;
1128;SDS011;553;51.038;7.216;2023-04-24T14:16:31;7.90;;;3.63;;
1128;SDS011;553;51.038;7.216;2023-04-24T14:18:58;7.87;;;3.40;;
1128;SDS011;553;51.038;7.216;2023-04-24T14:21:25;7.43;;;4.17;;
1128;SDS011;553;51.038;7.216;2023-04-24T14:23:51;7.63;;;3.90;;
1128;SDS011;553;51.038;7.216;2023-04-24T14:26:19;10.30;;;4.20;;
1128;SDS011;553;51.038;7.216;2023-04-24T14:28:46;7.17;;;3.30;;
1128;SDS011;553;51.038;7.216;2023-04-24T14:31:12;7.90;;;3.70;;
1128;SDS011;553;51.038;7.216;2023-04-24T14:33:39;7.83;;;4.37;;
1128;SDS011;553;51.038;7.216;2023-04-24T14:36:06;5.47;;;3.90;;
1128;SDS011;553;51.038;7.216;2023-04-24T14:38:33;11.23;;;4.23;;
1128;SDS011;553;51.038;7.216;2023-04-24T14:41:00;9.97;;;3.67;;
1128;SDS011;553;51.038;7.216;2023-04-24T14:43:33;6.53;;;3.90;;
1128;SDS011;553;51.038;7.216;2023-04-24T14:46:01;7.77;;;4.73;;
1128;SDS011;553;51.038;7.216;2023-04-24T14:48:29;8.83;;;4.40;;
1128;SDS011;553;51.038;7.216;2023-04-24T14:50:56;6.67;;;3.60;;
1128;SDS011;553;51.038;7.216;2023-04-24T14:53:23;6.97;;;4.07;;
1128;SDS011;553;51.038;7.216;2023-04-24T14:55:50;13.03;;;4.33;;
1128;SDS011;553;51.038;7.216;2023-04-24T14:58:16;6.03;;;4.13;;
1128;SDS011;553;51.038;7.216;2023-04-24T15:00:43;3.97;;;3.53;;
1128;SDS011;553;51.038;7.216;2023-04-24T15:03:09;4.77;;;3.50;;
1128;SDS011;553;51.038;7.216;2023-04-24T15:05:37;6.30;;;3.17;;
1128;SDS011;553;51.038;7.216;2023-04-24T15:08:04;7.20;;;3.53;;
1128;SDS011;553;51.038;7.216;2023-04-24T15:10:31;6.87;;;2.53;;
1128;SDS011;553;51.038;7.216;2023-04-24T15:12:59;6.37;;;2.80;;
1128;SDS011;553;51.038;7.216;2023-04-24T15:15:26;4.60;;;3.13;;
1128;SDS011;553;51.038;7.216;2023-04-24T15:17:53;6.03;;;2.93;;
1128;SDS011;553;51.038;7.216;2023-04-24T15:20:20;6.03;;;2.73;;
1128;SDS011;553;51.038;7.216;2023-04-24T15:22:47;5.27;;;2.70;;
1128;SDS011;553;51.038;7.216;2023-04-24T15:25:14;4.63;;;3.00;;
1128;SDS011;553;51.038;7.216;2023-04-24T15:27:43;6.07;;;3.00;;
1128;SDS011;553;51.038;7.216;2023-04-24T15:30:12;4.30;;;2.60;;
1128;SDS011;553;51.038;7.216;2023-04-24T15:32:39;5.70;;;2.40;;
1128;SDS011;553;51.038;7.216;2023-04-24T15:35:06;4.67;;;2.53;;
1128;SDS011;553;51.038;7.216;2023-04-24T15:37:36;6.80;;;3.93;;
1128;SDS011;553;51.038;7.216;2023-04-24T15:40:04;5.93;;;3.13;;
1128;SDS011;553;51.038;7.216;2023-04-24T15:42:33;3.53;;;2.60;;
1128;SDS011;553;51.038;7.216;2023-04-24T15:45:01;3.00;;;2.60;;
1128;SDS011;553;51.038;7.216;2023-04-24T15:47:28;5.80;;;3.00;;
1128;SDS011;553;51.038;7.216;2023-04-24T15:49:55;6.17;;;2.80;;
1128;SDS011;553;51.038;7.216;2023-04-24T15:52:24;4.60;;;3.00;;